Ochlocknee, Georgia
Current Conditions -  °F | °C
As of 7:15 PM on Tuesday 25 Nov 2014 (Local Time) from KTVI Reporting Station
Drizzle Drizzle  
Wind Chill: 52°   Ceiling: 5500
Heat Index: 52°   Visibility: 10mi
Dew Point: 52°   Wind: 7mph
Humidity: 100%   Direction: 360°N
Pressure: 30"   Gusts: NA
Location:  30.97°N, 84.05°W
Report Text: KTVI 260015Z AUTO 36006KT 10SM -DZ SCT006 SCT010 OVC055 11/11 A3000 RMK AO2
Loading
Personal Weather Stations






























Interactive Weather Map New forecast layout! Learn more

10-Day Weather Forecast

Advertisements
Track Severe Weather on mobile